createdAt,value
2019-03-08T00:02:03.494Z,6.3
2019-03-08T00:07:05.985Z,6.2
2019-03-08T00:12:08.375Z,6.2
2019-03-08T00:17:10.839Z,6.1
2019-03-08T00:22:13.313Z,6
2019-03-08T00:27:15.773Z,6
2019-03-08T00:32:18.226Z,6.1
2019-03-08T00:37:20.663Z,6.1
2019-03-08T00:42:23.235Z,6.2
2019-03-08T00:47:25.643Z,6.2
2019-03-08T00:52:28.062Z,6.3
2019-03-08T00:57:30.487Z,6.4
2019-03-08T01:02:32.955Z,6.5
2019-03-08T01:07:35.421Z,6.6
2019-03-08T01:12:37.882Z,6.6
2019-03-08T01:17:40.356Z,6.6
2019-03-08T01:22:42.818Z,6.6
2019-03-08T01:27:45.227Z,6.5
2019-03-08T01:32:47.712Z,6.5
2019-03-08T01:37:50.135Z,6.5
2019-03-08T01:42:52.612Z,6.6
2019-03-08T01:47:55.062Z,6.6
2019-03-08T01:52:57.563Z,6.7
2019-03-08T01:58:00.003Z,6.7
2019-03-08T02:03:02.520Z,6.8
2019-03-08T02:08:04.876Z,6.8
2019-03-08T02:13:07.351Z,6.8
2019-03-08T02:18:10.105Z,6.9
2019-03-08T02:23:12.298Z,6.9
2019-03-08T02:28:14.873Z,6.9
2019-03-08T02:33:17.230Z,6.7
2019-03-08T02:38:19.649Z,6.5
2019-03-08T02:43:22.112Z,6.4
2019-03-08T02:48:24.552Z,6.2
2019-03-08T02:53:27.044Z,6.2
2019-03-08T02:58:29.509Z,6.2
2019-03-08T03:08:34.406Z,6.2
2019-03-08T03:13:36.852Z,6.2
2019-03-08T03:18:39.299Z,6.3
2019-03-08T03:23:41.792Z,6.2
2019-03-08T03:28:44.230Z,6.2
2019-03-08T03:33:46.679Z,6.3
2019-03-08T03:38:49.150Z,6.5
2019-03-08T03:43:51.647Z,6.6
2019-03-08T03:48:54.084Z,6.7
2019-03-08T03:53:56.517Z,6.7
2019-03-08T03:58:58.992Z,6.7
2019-03-08T04:04:01.487Z,6.7
2019-03-08T04:09:03.895Z,6.8
2019-03-08T04:14:06.446Z,6.6
2019-03-08T04:19:08.846Z,6.6
2019-03-08T04:24:11.343Z,6.7
2019-03-08T04:29:19.040Z,6.7
2019-03-08T04:34:16.262Z,6.7
2019-03-08T04:39:23.639Z,6.7
2019-03-08T04:44:26.148Z,6.6
2019-03-08T04:49:23.592Z,6.6
2019-03-08T04:54:26.054Z,6.6
2019-03-08T05:04:35.943Z,6.6
2019-03-08T05:09:38.395Z,6.5
2019-03-08T05:14:40.959Z,6.5
2019-03-08T05:19:43.326Z,6.5
2019-03-08T05:24:45.776Z,6.4
2019-03-08T05:29:48.228Z,6.4
2019-03-08T05:34:45.730Z,6.3
2019-03-08T05:39:53.139Z,6.3
2019-03-08T05:44:50.717Z,6.3
2019-03-08T05:49:58.046Z,6.3
2019-03-08T05:55:00.530Z,6.3
2019-03-08T06:00:03.137Z,6.3
2019-03-08T06:05:00.487Z,6.2
2019-03-08T06:10:03.009Z,6.2
2019-03-08T06:15:10.374Z,6.3
2019-03-08T06:20:07.860Z,6.4
2019-03-08T06:25:15.319Z,6.4
2019-03-08T06:30:17.743Z,6.4
2019-03-08T06:35:15.242Z,6.4
2019-03-08T06:40:17.722Z,6.4
2019-03-08T06:45:20.184Z,6.4
2019-03-08T06:50:22.579Z,6.5
2019-03-08T06:55:25.127Z,6.6
2019-03-08T07:00:27.525Z,6.7
2019-03-08T07:05:29.959Z,6.8
2019-03-08T07:10:32.503Z,6.8
2019-03-08T07:15:34.937Z,6.8
2019-03-08T07:20:37.329Z,6.9
2019-03-08T07:25:51.336Z,7
2019-03-08T07:30:47.299Z,7.1
2019-03-08T07:35:49.961Z,8.5
2019-03-08T07:40:52.188Z,9.3
2019-03-08T07:45:54.619Z,9.2
2019-03-08T07:50:52.116Z,9.6
2019-03-08T07:55:54.570Z,10.5
2019-03-08T08:00:57.066Z,12
2019-03-08T08:06:04.461Z,13.1
2019-03-08T08:11:07.219Z,12.6
2019-03-08T08:16:04.391Z,11.7
2019-03-08T08:21:07.203Z,10.7
2019-03-08T08:26:09.347Z,10.4
2019-03-08T08:31:12.005Z,10.4
2019-03-08T08:36:19.205Z,10
2019-03-08T08:41:21.665Z,9.4
2019-03-08T08:46:19.152Z,9
2019-03-08T08:51:26.609Z,8.4
2019-03-08T08:56:29.021Z,8.4
2019-03-08T09:01:26.534Z,8.8
2019-03-08T09:06:33.994Z,9.1
2019-03-08T09:11:43.963Z,9
2019-03-08T09:16:38.863Z,9.1
2019-03-08T09:21:41.325Z,8.9
2019-03-08T09:26:43.841Z,8.7
2019-03-08T09:31:46.251Z,8.7
2019-03-08T09:36:48.878Z,8.6
2019-03-08T09:41:51.228Z,8.5
2019-03-08T09:46:53.596Z,8.5
2019-03-08T09:51:56.077Z,8.4
2019-03-08T09:56:58.518Z,8.4
2019-03-08T10:02:00.958Z,8.6
2019-03-08T10:07:03.466Z,9
2019-03-08T10:12:05.898Z,9.2
2019-03-08T10:17:03.506Z,9.1
2019-03-08T10:22:10.809Z,9.1
2019-03-08T10:27:08.315Z,9
2019-03-08T10:32:15.747Z,8.7
2019-03-08T10:37:18.181Z,8.7
2019-03-08T10:42:15.650Z,9.1
2019-03-08T10:47:23.193Z,9.7
2019-03-08T10:52:25.555Z,10.6
2019-03-08T10:57:23.060Z,11.8
2019-03-08T11:02:25.650Z,14.2
2019-03-08T11:07:32.932Z,16.6
2019-03-08T11:12:30.592Z,17.7
2019-03-08T11:17:37.848Z,17.3
2019-03-08T11:22:35.422Z,15.2
2019-03-08T11:27:37.743Z,13.1
2019-03-08T11:32:40.261Z,11.7
2019-03-08T11:37:42.665Z,10.9
2019-03-08T11:42:45.116Z,10.5
2019-03-08T11:47:47.672Z,10.7
2019-03-08T11:52:50.094Z,11
2019-03-08T11:57:52.573Z,10.7
2019-03-08T12:02:54.969Z,10.5
2019-03-08T12:07:57.473Z,10.3
2019-03-08T12:12:59.984Z,10.2
2019-03-08T12:18:02.357Z,10.4
2019-03-08T12:23:04.788Z,10.7
2019-03-08T12:28:12.253Z,10.7
2019-03-08T12:33:09.721Z,10.6
2019-03-08T12:38:12.308Z,10.6
2019-03-08T12:43:14.610Z,11.4
2019-03-08T12:48:23.552Z,11.9
2019-03-08T12:53:19.664Z,11.9
2019-03-08T12:58:21.981Z,11
2019-03-08T13:03:24.470Z,10
2019-03-08T13:08:26.905Z,9.2
2019-03-08T13:13:29.353Z,9.1
2019-03-08T13:18:31.888Z,8.9
2019-03-08T13:23:34.260Z,8.5
2019-03-08T13:28:36.754Z,8.1
2019-03-08T13:33:39.253Z,7.8
2019-03-08T13:38:41.960Z,7.5
2019-03-08T13:43:44.122Z,7.4
2019-03-08T13:48:46.967Z,7.3
2019-03-08T13:53:49.033Z,7.4
2019-03-08T13:58:51.473Z,7.7
2019-03-08T14:03:53.978Z,7.9
2019-03-08T14:08:56.425Z,8
2019-03-08T14:13:58.822Z,8.1
2019-03-08T14:19:01.390Z,8.1
2019-03-08T14:24:03.773Z,8
2019-03-08T14:29:06.513Z,7.7
2019-03-08T14:39:11.167Z,7.1
2019-03-08T14:44:13.733Z,6.9
2019-03-08T14:49:19.162Z,6.8
2019-03-08T14:54:18.490Z,6.7
2019-03-08T14:59:21.010Z,6.8
2019-03-08T15:04:23.443Z,6.8
2019-03-08T15:09:28.975Z,6.9
2019-03-08T15:14:30.041Z,7
2019-03-08T15:19:30.800Z,7
2019-03-08T15:24:38.209Z,7.2
2019-03-08T15:29:35.693Z,7.5
2019-03-08T15:34:38.159Z,7.6
2019-03-08T15:39:40.610Z,7.6
2019-03-08T15:44:43.078Z,7.5
2019-03-08T15:49:45.662Z,7.4
2019-03-08T15:54:47.980Z,7.3
2019-03-08T15:59:50.476Z,7.1
2019-03-08T16:04:52.905Z,7
2019-03-08T16:09:55.489Z,7
2019-03-08T16:14:57.811Z,6.8
2019-03-08T16:20:02.789Z,6.6
2019-03-08T16:25:06.432Z,6.3
2019-03-08T16:30:09.464Z,6.1
2019-03-08T16:35:07.718Z,6.1
2019-03-08T16:40:10.146Z,6.1
2019-03-08T16:45:12.584Z,6.2
2019-03-08T16:50:15.031Z,6.2
2019-03-08T16:55:17.649Z,6.2
2019-03-08T17:00:19.947Z,5.9
2019-03-08T17:05:22.403Z,5.7
2019-03-08T17:10:24.837Z,5.5
2019-03-08T17:15:27.302Z,5.4
2019-03-08T17:20:29.801Z,5.2
2019-03-08T17:25:32.248Z,5
2019-03-08T17:30:34.696Z,4.9
2019-03-08T17:35:37.141Z,4.8
2019-03-08T17:40:39.598Z,4.7
2019-03-08T17:45:42.074Z,4.6
2019-03-08T17:50:44.523Z,4.6
2019-03-08T17:55:46.957Z,4.6
2019-03-08T18:00:49.460Z,4.4
2019-03-08T18:05:51.891Z,4.4
2019-03-08T18:10:54.484Z,4.4
2019-03-08T18:15:56.899Z,4.4
2019-03-08T18:20:59.263Z,4.3
2019-03-08T18:26:01.814Z,4.2
2019-03-08T18:31:04.184Z,4.2
2019-03-08T18:36:06.672Z,4.1
2019-03-08T18:41:09.106Z,4.1
2019-03-08T18:46:11.551Z,4.1
2019-03-08T18:51:14.060Z,4.2
2019-03-08T18:56:16.540Z,4.2
2019-03-08T19:01:18.973Z,4.3
2019-03-08T19:06:21.388Z,4.3
2019-03-08T19:11:23.848Z,4.3
2019-03-08T19:16:26.302Z,4.3
2019-03-08T19:21:28.758Z,4.3
2019-03-08T19:26:31.289Z,4.3
2019-03-08T19:31:33.701Z,4.3
2019-03-08T19:36:36.239Z,4.3
2019-03-08T19:41:38.610Z,4.2
2019-03-08T19:46:41.074Z,4.1
2019-03-08T19:51:43.539Z,4.2
2019-03-08T19:56:45.989Z,4.1
2019-03-08T20:01:48.476Z,4.1
2019-03-08T20:06:50.923Z,4
2019-03-08T20:11:53.424Z,4
2019-03-08T20:16:55.824Z,4
2019-03-08T20:21:58.294Z,3.9
2019-03-08T20:27:00.798Z,3.9
2019-03-08T20:32:03.230Z,3.9
2019-03-08T20:37:05.677Z,3.9
2019-03-08T20:42:08.137Z,3.9
2019-03-08T20:47:10.599Z,3.8
2019-03-08T20:52:13.060Z,3.7
2019-03-08T20:57:15.598Z,3.8
2019-03-08T21:02:17.994Z,3.8
2019-03-08T21:07:20.466Z,3.8
2019-03-08T21:12:22.918Z,3.9
2019-03-08T21:17:25.427Z,3.9
2019-03-08T21:22:27.824Z,3.9
2019-03-08T21:27:30.288Z,4
2019-03-08T21:32:32.818Z,4
2019-03-08T21:42:37.692Z,4.2
2019-03-08T21:47:40.168Z,4.3
2019-03-08T21:52:42.672Z,4.4
2019-03-08T21:57:45.085Z,4.5
2019-03-08T22:02:47.604Z,4.7
2019-03-08T22:07:50.060Z,4.9
2019-03-08T22:12:52.439Z,5
2019-03-08T22:17:54.902Z,5
2019-03-08T22:22:57.404Z,5.1
2019-03-08T22:27:59.818Z,5.2
2019-03-08T22:33:02.356Z,5.3
2019-03-08T22:38:04.741Z,5.3
2019-03-08T22:43:07.211Z,5.3
2019-03-08T22:48:09.640Z,5.3
2019-03-08T22:53:12.095Z,5.3
2019-03-08T22:58:14.599Z,5.4
2019-03-08T23:03:17.015Z,5.4
2019-03-08T23:08:19.467Z,5.5
2019-03-08T23:13:21.912Z,5.6
2019-03-08T23:18:24.395Z,5.7
2019-03-08T23:23:26.864Z,5.8
2019-03-08T23:28:29.301Z,5.8
2019-03-08T23:33:31.759Z,5.9
2019-03-08T23:38:34.374Z,5.9
2019-03-08T23:43:36.675Z,5.9
2019-03-08T23:48:39.118Z,5.8
2019-03-08T23:53:41.607Z,5.7
2019-03-08T23:58:44.044Z,5.7
